sensor_id;sensor_type;location;lat;lon;timestamp;pressure;altitude;pressure_sealevel;temperature;humidity
20019;BME280;10170;42.502;26.526;2023-02-20T00:00:34;99732.66;;;13.03;100.00
20019;BME280;10170;42.502;26.526;2023-02-20T00:03:03;99740.25;;;12.99;100.00
20019;BME280;10170;42.502;26.526;2023-02-20T00:05:30;99742.97;;;13.17;100.00
20019;BME280;10170;42.502;26.526;2023-02-20T00:07:57;99744.00;;;13.16;100.00
20019;BME280;10170;42.502;26.526;2023-02-20T00:10:24;99742.53;;;13.20;100.00
20019;BME280;10170;42.502;26.526;2023-02-20T00:12:51;99743.09;;;13.04;100.00
20019;BME280;10170;42.502;26.526;2023-02-20T00:15:21;99743.94;;;12.98;100.00
20019;BME280;10170;42.502;26.526;2023-02-20T00:17:48;99736.06;;;12.85;100.00
20019;BME280;10170;42.502;26.526;2023-02-20T00:20:17;99736.16;;;12.97;100.00
20019;BME280;10170;42.502;26.526;2023-02-20T00:22:44;99727.38;;;12.90;100.00
20019;BME280;10170;42.502;26.526;2023-02-20T00:25:10;99723.66;;;12.91;100.00
20019;BME280;10170;42.502;26.526;2023-02-20T00:27:37;99719.69;;;13.00;100.00
20019;BME280;10170;42.502;26.526;2023-02-20T00:30:04;99706.69;;;13.10;100.00
20019;BME280;10170;42.502;26.526;2023-02-20T00:32:31;99710.44;;;13.45;100.00
20019;BME280;10170;42.502;26.526;2023-02-20T00:34:58;99712.34;;;13.56;100.00
20019;BME280;10170;42.502;26.526;2023-02-20T00:37:25;99722.31;;;13.67;100.00
20019;BME280;10170;42.502;26.526;2023-02-20T00:39:51;99714.13;;;13.80;100.00
20019;BME280;10170;42.502;26.526;2023-02-20T00:42:18;99714.41;;;13.90;100.00
20019;BME280;10170;42.502;26.526;2023-02-20T00:44:45;99709.69;;;14.04;100.00
20019;BME280;10170;42.502;26.526;2023-02-20T00:47:11;99719.16;;;13.88;100.00
20019;BME280;10170;42.502;26.526;2023-02-20T00:49:38;99721.00;;;13.88;100.00
20019;BME280;10170;42.502;26.526;2023-02-20T00:52:05;99706.88;;;13.99;94.86
20019;BME280;10170;42.502;26.526;2023-02-20T00:54:31;99709.19;;;13.95;91.32
20019;BME280;10170;42.502;26.526;2023-02-20T00:56:58;99708.22;;;13.90;86.76
20019;BME280;10170;42.502;26.526;2023-02-20T00:59:25;99714.50;;;14.13;82.30
20019;BME280;10170;42.502;26.526;2023-02-20T01:01:51;99708.56;;;14.11;80.42
20019;BME280;10170;42.502;26.526;2023-02-20T01:04:18;99711.94;;;14.18;78.87
20019;BME280;10170;42.502;26.526;2023-02-20T01:06:46;99695.88;;;14.07;78.37
20019;BME280;10170;42.502;26.526;2023-02-20T01:09:13;99702.13;;;14.01;79.26
20019;BME280;10170;42.502;26.526;2023-02-20T01:11:43;99694.72;;;13.85;79.50
20019;BME280;10170;42.502;26.526;2023-02-20T01:14:11;99695.31;;;13.87;80.30
20019;BME280;10170;42.502;26.526;2023-02-20T01:16:46;99702.72;;;13.73;79.69
20019;BME280;10170;42.502;26.526;2023-02-20T01:19:14;99694.38;;;13.81;79.65
20019;BME280;10170;42.502;26.526;2023-02-20T01:21:40;99697.44;;;13.66;79.61
20019;BME280;10170;42.502;26.526;2023-02-20T01:24:07;99699.81;;;13.74;78.98
20019;BME280;10170;42.502;26.526;2023-02-20T01:26:34;99698.91;;;13.62;78.72
20019;BME280;10170;42.502;26.526;2023-02-20T01:29:03;99713.56;;;13.60;79.15
20019;BME280;10170;42.502;26.526;2023-02-20T01:31:29;99709.91;;;13.54;80.23
20019;BME280;10170;42.502;26.526;2023-02-20T01:33:56;99714.19;;;13.73;79.21
20019;BME280;10170;42.502;26.526;2023-02-20T01:36:23;99712.59;;;13.54;79.62
20019;BME280;10170;42.502;26.526;2023-02-20T01:38:50;99714.44;;;13.54;80.01
20019;BME280;10170;42.502;26.526;2023-02-20T01:41:17;99708.63;;;13.57;78.91
20019;BME280;10170;42.502;26.526;2023-02-20T01:43:45;99719.84;;;13.65;77.88
20019;BME280;10170;42.502;26.526;2023-02-20T01:46:46;99716.81;;;13.44;79.45
20019;BME280;10170;42.502;26.526;2023-02-20T01:49:18;99714.56;;;13.59;78.79
20019;BME280;10170;42.502;26.526;2023-02-20T01:51:54;99702.72;;;13.37;79.36
20019;BME280;10170;42.502;26.526;2023-02-20T01:54:23;99702.09;;;13.17;80.36
20019;BME280;10170;42.502;26.526;2023-02-20T01:56:53;99709.81;;;13.25;79.57
20019;BME280;10170;42.502;26.526;2023-02-20T01:59:22;99698.94;;;13.26;78.67
20019;BME280;10170;42.502;26.526;2023-02-20T02:01:51;99704.72;;;13.41;77.21
20019;BME280;10170;42.502;26.526;2023-02-20T02:04:19;99698.63;;;13.34;77.70
20019;BME280;10170;42.502;26.526;2023-02-20T02:06:48;99686.34;;;13.33;77.77
20019;BME280;10170;42.502;26.526;2023-02-20T02:09:43;99707.75;;;13.45;77.70
20019;BME280;10170;42.502;26.526;2023-02-20T02:12:08;99715.53;;;13.46;77.23
20019;BME280;10170;42.502;26.526;2023-02-20T02:14:35;99717.06;;;13.42;76.62
20019;BME280;10170;42.502;26.526;2023-02-20T02:20:16;99722.53;;;13.29;77.07
20019;BME280;10170;42.502;26.526;2023-02-20T02:25:55;99707.97;;;13.25;77.29
20019;BME280;10170;42.502;26.526;2023-02-20T02:37:18;99724.13;;;13.30;74.08
20019;BME280;10170;42.502;26.526;2023-02-20T02:42:55;99698.91;;;13.08;75.06
20019;BME280;10170;42.502;26.526;2023-02-20T02:45:59;99734.78;;;13.12;76.00
20019;BME280;10170;42.502;26.526;2023-02-20T02:51:11;99736.44;;;12.89;77.94
20019;BME280;10170;42.502;26.526;2023-02-20T02:53:39;99722.34;;;12.82;78.65
20019;BME280;10170;42.502;26.526;2023-02-20T02:56:07;99734.88;;;13.06;77.45
20019;BME280;10170;42.502;26.526;2023-02-20T02:58:53;99733.84;;;13.00;77.46
20019;BME280;10170;42.502;26.526;2023-02-20T03:01:20;99742.69;;;13.01;77.82
20019;BME280;10170;42.502;26.526;2023-02-20T03:03:49;99744.16;;;12.72;79.50
20019;BME280;10170;42.502;26.526;2023-02-20T03:06:22;99740.75;;;12.58;81.50
20019;BME280;10170;42.502;26.526;2023-02-20T03:09:01;99727.22;;;12.60;82.89
20019;BME280;10170;42.502;26.526;2023-02-20T03:11:32;99739.44;;;12.74;83.57
20019;BME280;10170;42.502;26.526;2023-02-20T03:14:05;99745.47;;;12.63;85.77
20019;BME280;10170;42.502;26.526;2023-02-20T03:17:13;99754.97;;;12.52;87.37
20019;BME280;10170;42.502;26.526;2023-02-20T03:19:45;99753.25;;;12.64;89.10
20019;BME280;10170;42.502;26.526;2023-02-20T03:22:35;99752.16;;;12.41;91.90
20019;BME280;10170;42.502;26.526;2023-02-20T03:27:46;99755.00;;;12.46;94.73
20019;BME280;10170;42.502;26.526;2023-02-20T03:31:03;99744.72;;;12.49;95.19
20019;BME280;10170;42.502;26.526;2023-02-20T03:33:16;99731.91;;;12.33;95.96
20019;BME280;10170;42.502;26.526;2023-02-20T03:36:06;99751.16;;;12.35;95.92
20019;BME280;10170;42.502;26.526;2023-02-20T03:39:00;99769.63;;;12.37;95.06
20019;BME280;10170;42.502;26.526;2023-02-20T03:41:48;99785.94;;;12.16;97.54
20019;BME280;10170;42.502;26.526;2023-02-20T03:44:35;99790.06;;;12.12;98.39
20019;BME280;10170;42.502;26.526;2023-02-20T03:47:03;99798.88;;;12.12;98.81
20019;BME280;10170;42.502;26.526;2023-02-20T03:49:37;99793.19;;;12.02;98.38
20019;BME280;10170;42.502;26.526;2023-02-20T03:52:05;99797.78;;;12.26;96.02
20019;BME280;10170;42.502;26.526;2023-02-20T03:54:34;99815.03;;;12.17;95.64
20019;BME280;10170;42.502;26.526;2023-02-20T03:57:23;99819.84;;;12.02;98.32
20019;BME280;10170;42.502;26.526;2023-02-20T03:59:54;99831.00;;;11.73;100.00
20019;BME280;10170;42.502;26.526;2023-02-20T04:02:38;99828.28;;;11.80;100.00
20019;BME280;10170;42.502;26.526;2023-02-20T04:05:21;99831.81;;;11.67;100.00
20019;BME280;10170;42.502;26.526;2023-02-20T04:08:16;99831.19;;;11.78;99.66
20019;BME280;10170;42.502;26.526;2023-02-20T04:10:57;99825.44;;;11.81;99.69
20019;BME280;10170;42.502;26.526;2023-02-20T04:13:25;99836.34;;;11.67;100.00
20019;BME280;10170;42.502;26.526;2023-02-20T04:15:53;99818.28;;;11.55;100.00
20019;BME280;10170;42.502;26.526;2023-02-20T04:18:21;99838.38;;;11.71;100.00
20019;BME280;10170;42.502;26.526;2023-02-20T04:20:54;99849.03;;;11.78;99.28
20019;BME280;10170;42.502;26.526;2023-02-20T04:23:24;99852.69;;;11.83;98.45
20019;BME280;10170;42.502;26.526;2023-02-20T04:26:06;99851.06;;;11.82;97.28
20019;BME280;10170;42.502;26.526;2023-02-20T04:28:34;99861.69;;;11.89;97.00
20019;BME280;10170;42.502;26.526;2023-02-20T04:31:01;99857.38;;;11.94;95.83
20019;BME280;10170;42.502;26.526;2023-02-20T04:33:27;99867.84;;;11.89;95.50
20019;BME280;10170;42.502;26.526;2023-02-20T04:35:54;99869.69;;;11.82;96.85
20019;BME280;10170;42.502;26.526;2023-02-20T04:38:24;99863.78;;;11.74;97.21
20019;BME280;10170;42.502;26.526;2023-02-20T04:40:50;99832.84;;;11.53;97.19
20019;BME280;10170;42.502;26.526;2023-02-20T04:43:17;99867.69;;;11.64;99.03
20019;BME280;10170;42.502;26.526;2023-02-20T04:45:44;99860.28;;;11.53;100.00
20019;BME280;10170;42.502;26.526;2023-02-20T04:48:11;99861.50;;;11.51;99.81
20019;BME280;10170;42.502;26.526;2023-02-20T04:50:38;99868.47;;;11.58;98.97
20019;BME280;10170;42.502;26.526;2023-02-20T04:53:04;99861.53;;;11.57;97.86
20019;BME280;10170;42.502;26.526;2023-02-20T04:55:31;99868.50;;;11.65;96.58
20019;BME280;10170;42.502;26.526;2023-02-20T04:57:58;99838.78;;;11.42;96.37
20019;BME280;10170;42.502;26.526;2023-02-20T05:00:25;99851.09;;;11.56;94.49
20019;BME280;10170;42.502;26.526;2023-02-20T05:02:52;99864.38;;;11.69;94.28
20019;BME280;10170;42.502;26.526;2023-02-20T05:05:20;99873.78;;;11.91;91.82
20019;BME280;10170;42.502;26.526;2023-02-20T05:07:48;99877.09;;;11.74;92.06
20019;BME280;10170;42.502;26.526;2023-02-20T05:10:20;99887.13;;;11.58;93.30
20019;BME280;10170;42.502;26.526;2023-02-20T05:12:47;99899.59;;;11.58;92.77
20019;BME280;10170;42.502;26.526;2023-02-20T05:15:14;99902.28;;;11.51;93.35
20019;BME280;10170;42.502;26.526;2023-02-20T05:17:41;99913.78;;;11.65;91.35
20019;BME280;10170;42.502;26.526;2023-02-20T05:20:08;99910.09;;;11.79;90.25
20019;BME280;10170;42.502;26.526;2023-02-20T05:22:35;99912.91;;;11.91;89.33
20019;BME280;10170;42.502;26.526;2023-02-20T05:25:02;99918.88;;;11.80;90.29
20019;BME280;10170;42.502;26.526;2023-02-20T05:27:29;99931.38;;;11.92;90.29
20019;BME280;10170;42.502;26.526;2023-02-20T05:29:57;99940.00;;;11.81;91.20
20019;BME280;10170;42.502;26.526;2023-02-20T05:32:26;99949.84;;;11.81;92.14
20019;BME280;10170;42.502;26.526;2023-02-20T05:34:54;99950.88;;;11.86;90.77
20019;BME280;10170;42.502;26.526;2023-02-20T05:37:22;99964.97;;;11.60;92.82
20019;BME280;10170;42.502;26.526;2023-02-20T05:39:49;99970.31;;;11.54;92.39
20019;BME280;10170;42.502;26.526;2023-02-20T05:42:17;99969.28;;;11.75;89.30
20019;BME280;10170;42.502;26.526;2023-02-20T05:44:44;99966.78;;;11.40;90.82
20019;BME280;10170;42.502;26.526;2023-02-20T05:47:10;99963.13;;;11.48;89.75
20019;BME280;10170;42.502;26.526;2023-02-20T05:49:37;99973.97;;;11.46;88.98
20019;BME280;10170;42.502;26.526;2023-02-20T05:52:04;99965.78;;;11.41;89.26
20019;BME280;10170;42.502;26.526;2023-02-20T05:54:38;99966.19;;;11.58;87.89
20019;BME280;10170;42.502;26.526;2023-02-20T05:57:05;99953.75;;;11.65;87.25
20019;BME280;10170;42.502;26.526;2023-02-20T05:59:32;99957.63;;;11.76;85.11
20019;BME280;10170;42.502;26.526;2023-02-20T06:01:59;99962.56;;;11.72;85.03
20019;BME280;10170;42.502;26.526;2023-02-20T06:04:26;99961.09;;;11.63;86.11
20019;BME280;10170;42.502;26.526;2023-02-20T06:06:53;99969.31;;;11.68;86.03
20019;BME280;10170;42.502;26.526;2023-02-20T06:09:20;99977.72;;;11.72;86.12
20019;BME280;10170;42.502;26.526;2023-02-20T06:11:52;100001.06;;;11.76;85.27
20019;BME280;10170;42.502;26.526;2023-02-20T06:14:21;100003.94;;;11.68;85.82
20019;BME280;10170;42.502;26.526;2023-02-20T06:16:48;100029.34;;;11.71;84.96
20019;BME280;10170;42.502;26.526;2023-02-20T06:19:20;100032.00;;;11.84;84.29
20019;BME280;10170;42.502;26.526;2023-02-20T06:21:49;100036.94;;;11.93;83.89
20019;BME280;10170;42.502;26.526;2023-02-20T06:24:16;100029.56;;;12.02;83.65
20019;BME280;10170;42.502;26.526;2023-02-20T06:26:43;100034.69;;;11.90;82.20
20019;BME280;10170;42.502;26.526;2023-02-20T06:29:12;100038.38;;;12.02;80.92
20019;BME280;10170;42.502;26.526;2023-02-20T06:31:39;100034.28;;;12.00;80.92
20019;BME280;10170;42.502;26.526;2023-02-20T06:34:07;100041.25;;;11.94;80.65
20019;BME280;10170;42.502;26.526;2023-02-20T06:36:36;100051.50;;;11.91;81.77
20019;BME280;10170;42.502;26.526;2023-02-20T06:39:05;100057.22;;;11.75;83.10
20019;BME280;10170;42.502;26.526;2023-02-20T06:41:32;100047.38;;;11.69;84.01
20019;BME280;10170;42.502;26.526;2023-02-20T06:43:59;100051.91;;;11.88;81.80
20019;BME280;10170;42.502;26.526;2023-02-20T06:46:25;100047.78;;;11.85;81.63
20019;BME280;10170;42.502;26.526;2023-02-20T06:48:55;100053.97;;;11.99;79.13
20019;BME280;10170;42.502;26.526;2023-02-20T06:51:28;100063.81;;;11.92;80.29
20019;BME280;10170;42.502;26.526;2023-02-20T06:53:56;100084.09;;;12.12;78.15
20019;BME280;10170;42.502;26.526;2023-02-20T06:56:25;100078.78;;;12.25;76.16
20019;BME280;10170;42.502;26.526;2023-02-20T06:58:52;100083.03;;;12.59;76.26
20019;BME280;10170;42.502;26.526;2023-02-20T07:01:22;100091.00;;;13.42;72.44
20019;BME280;10170;42.502;26.526;2023-02-20T07:03:49;100086.88;;;14.09;69.85
20019;BME280;10170;42.502;26.526;2023-02-20T07:06:16;100086.75;;;14.28;67.80
20019;BME280;10170;42.502;26.526;2023-02-20T07:08:43;100084.69;;;14.73;65.50
20019;BME280;10170;42.502;26.526;2023-02-20T07:11:10;100073.97;;;15.09;65.53
20019;BME280;10170;42.502;26.526;2023-02-20T07:13:37;100066.72;;;15.46;62.52
20019;BME280;10170;42.502;26.526;2023-02-20T07:16:04;100073.31;;;14.96;61.55
20019;BME280;10170;42.502;26.526;2023-02-20T07:18:31;100058.28;;;14.95;63.19
20019;BME280;10170;42.502;26.526;2023-02-20T07:20:58;100043.00;;;15.13;61.99
20019;BME280;10170;42.502;26.526;2023-02-20T07:23:25;100045.56;;;14.90;61.78
20019;BME280;10170;42.502;26.526;2023-02-20T07:25:52;100038.09;;;14.38;62.30
20019;BME280;10170;42.502;26.526;2023-02-20T07:28:19;100026.47;;;14.01;63.11
20019;BME280;10170;42.502;26.526;2023-02-20T07:30:47;100011.56;;;14.12;62.87
20019;BME280;10170;42.502;26.526;2023-02-20T07:33:15;100018.47;;;14.44;63.79
20019;BME280;10170;42.502;26.526;2023-02-20T07:35:43;100022.94;;;14.25;62.50
20019;BME280;10170;42.502;26.526;2023-02-20T07:38:10;100041.88;;;14.30;62.67
20019;BME280;10170;42.502;26.526;2023-02-20T07:40:37;100040.13;;;14.60;61.90
20019;BME280;10170;42.502;26.526;2023-02-20T07:43:05;100052.47;;;14.79;61.24
20019;BME280;10170;42.502;26.526;2023-02-20T07:45:32;100073.81;;;15.04;61.83
20019;BME280;10170;42.502;26.526;2023-02-20T07:47:59;100080.72;;;14.94;61.33
20019;BME280;10170;42.502;26.526;2023-02-20T07:50:26;100088.28;;;15.33;61.65
20019;BME280;10170;42.502;26.526;2023-02-20T07:52:52;100094.72;;;15.32;59.89
20019;BME280;10170;42.502;26.526;2023-02-20T07:55:19;100126.88;;;15.32;59.79
20019;BME280;10170;42.502;26.526;2023-02-20T07:57:47;100109.38;;;15.29;59.43
20019;BME280;10170;42.502;26.526;2023-02-20T08:00:16;100132.69;;;14.19;61.11
20019;BME280;10170;42.502;26.526;2023-02-20T08:02:43;100121.97;;;13.88;62.70
20019;BME280;10170;42.502;26.526;2023-02-20T08:05:10;100132.72;;;13.81;63.08
20019;BME280;10170;42.502;26.526;2023-02-20T08:07:37;100119.78;;;13.78;64.04
20019;BME280;10170;42.502;26.526;2023-02-20T08:10:05;100135.78;;;13.85;64.84
20019;BME280;10170;42.502;26.526;2023-02-20T08:12:31;100145.16;;;13.62;63.43
20019;BME280;10170;42.502;26.526;2023-02-20T08:14:58;100148.50;;;13.51;64.60
20019;BME280;10170;42.502;26.526;2023-02-20T08:17:25;100152.84;;;13.46;65.78
20019;BME280;10170;42.502;26.526;2023-02-20T08:20:10;100147.50;;;13.46;64.89
20019;BME280;10170;42.502;26.526;2023-02-20T08:22:37;100138.44;;;13.47;64.46
20019;BME280;10170;42.502;26.526;2023-02-20T08:25:07;100135.00;;;13.40;65.43
20019;BME280;10170;42.502;26.526;2023-02-20T08:27:34;100138.78;;;13.19;65.20
20019;BME280;10170;42.502;26.526;2023-02-20T08:30:05;100144.31;;;13.24;65.45
20019;BME280;10170;42.502;26.526;2023-02-20T08:32:32;100143.47;;;13.74;64.95
20019;BME280;10170;42.502;26.526;2023-02-20T08:34:59;100142.50;;;13.94;63.78
20019;BME280;10170;42.502;26.526;2023-02-20T08:37:26;100134.44;;;13.69;63.21
20019;BME280;10170;42.502;26.526;2023-02-20T08:39:52;100137.00;;;13.44;64.87
20019;BME280;10170;42.502;26.526;2023-02-20T08:42:19;100093.00;;;13.53;65.70
20019;BME280;10170;42.502;26.526;2023-02-20T08:44:46;100137.81;;;14.27;63.01
20019;BME280;10170;42.502;26.526;2023-02-20T08:47:13;100139.28;;;14.90;61.83
20019;BME280;10170;42.502;26.526;2023-02-20T08:49:40;100140.50;;;15.30;62.33
20019;BME280;10170;42.502;26.526;2023-02-20T08:52:06;100152.69;;;15.08;60.31
20019;BME280;10170;42.502;26.526;2023-02-20T08:54:33;100160.75;;;15.44;58.44
20019;BME280;10170;42.502;26.526;2023-02-20T08:57:00;100152.59;;;14.54;59.31
20019;BME280;10170;42.502;26.526;2023-02-20T08:59:30;100155.44;;;14.03;60.52
20019;BME280;10170;42.502;26.526;2023-02-20T09:01:57;100160.09;;;14.08;60.67
20019;BME280;10170;42.502;26.526;2023-02-20T09:04:24;100145.13;;;14.07;60.10
20019;BME280;10170;42.502;26.526;2023-02-20T09:06:50;100163.91;;;14.25;60.25
20019;BME280;10170;42.502;26.526;2023-02-20T09:09:17;100168.53;;;14.42;60.13
20019;BME280;10170;42.502;26.526;2023-02-20T09:11:44;100175.06;;;14.96;58.55
20019;BME280;10170;42.502;26.526;2023-02-20T09:14:11;100172.91;;;14.61;58.61
20019;BME280;10170;42.502;26.526;2023-02-20T09:16:37;100183.28;;;14.51;59.90
20019;BME280;10170;42.502;26.526;2023-02-20T09:19:08;100189.63;;;14.82;61.75
20019;BME280;10170;42.502;26.526;2023-02-20T09:21:35;100185.44;;;14.67;61.67
20019;BME280;10170;42.502;26.526;2023-02-20T09:24:04;100175.03;;;14.77;58.79
20019;BME280;10170;42.502;26.526;2023-02-20T09:26:31;100188.72;;;14.69;60.22
20019;BME280;10170;42.502;26.526;2023-02-20T09:28:58;100184.00;;;14.65;60.69
20019;BME280;10170;42.502;26.526;2023-02-20T09:31:25;100187.59;;;14.77;61.16
20019;BME280;10170;42.502;26.526;2023-02-20T09:33:52;100194.72;;;15.26;60.50
20019;BME280;10170;42.502;26.526;2023-02-20T09:36:18;100190.19;;;16.40;57.00
20019;BME280;10170;42.502;26.526;2023-02-20T09:38:45;100194.72;;;17.04;56.14
20019;BME280;10170;42.502;26.526;2023-02-20T09:41:33;100202.38;;;17.46;54.98
20019;BME280;10170;42.502;26.526;2023-02-20T09:49:49;100191.31;;;18.11;51.18
20019;BME280;10170;42.502;26.526;2023-02-20T09:52:16;100202.91;;;18.11;52.31
20019;BME280;10170;42.502;26.526;2023-02-20T09:54:52;100195.19;;;17.75;52.36
20019;BME280;10170;42.502;26.526;2023-02-20T09:57:24;100188.94;;;17.58;51.47
20019;BME280;10170;42.502;26.526;2023-02-20T09:59:57;100194.94;;;16.79;51.36
20019;BME280;10170;42.502;26.526;2023-02-20T10:02:34;100188.56;;;16.09;52.96
20019;BME280;10170;42.502;26.526;2023-02-20T10:05:23;100187.94;;;15.48;53.58
20019;BME280;10170;42.502;26.526;2023-02-20T10:07:51;100190.94;;;15.88;53.96
20019;BME280;10170;42.502;26.526;2023-02-20T10:10:25;100190.44;;;16.09;53.77
20019;BME280;10170;42.502;26.526;2023-02-20T10:16:02;100192.34;;;16.72;53.99
20019;BME280;10170;42.502;26.526;2023-02-20T10:18:55;100203.81;;;16.68;53.99
20019;BME280;10170;42.502;26.526;2023-02-20T10:22:03;100201.00;;;16.33;53.50
20019;BME280;10170;42.502;26.526;2023-02-20T10:24:45;100209.09;;;16.04;54.27
20019;BME280;10170;42.502;26.526;2023-02-20T10:29:48;100226.28;;;16.14;54.13
20019;BME280;10170;42.502;26.526;2023-02-20T10:32:53;100237.38;;;15.70;55.71
20019;BME280;10170;42.502;26.526;2023-02-20T10:35:16;100232.81;;;15.10;55.65
20019;BME280;10170;42.502;26.526;2023-02-20T10:37:47;100240.59;;;14.68;56.77
20019;BME280;10170;42.502;26.526;2023-02-20T10:40:30;100238.13;;;14.42;59.01
20019;BME280;10170;42.502;26.526;2023-02-20T10:43:01;100239.06;;;14.79;58.55
20019;BME280;10170;42.502;26.526;2023-02-20T10:48:13;100233.75;;;15.40;56.80
20019;BME280;10170;42.502;26.526;2023-02-20T10:53:39;100240.03;;;16.89;53.24
20019;BME280;10170;42.502;26.526;2023-02-20T10:56:42;100227.88;;;17.55;52.18
20019;BME280;10170;42.502;26.526;2023-02-20T10:59:12;100227.75;;;17.62;51.42
20019;BME280;10170;42.502;26.526;2023-02-20T11:01:45;100226.38;;;17.87;50.57
20019;BME280;10170;42.502;26.526;2023-02-20T11:04:20;100219.91;;;17.37;51.47
20019;BME280;10170;42.502;26.526;2023-02-20T11:07:15;100231.78;;;16.49;53.71
20019;BME280;10170;42.502;26.526;2023-02-20T11:09:43;100232.44;;;16.44;52.88
20019;BME280;10170;42.502;26.526;2023-02-20T11:12:49;100233.31;;;15.97;53.69
20019;BME280;10170;42.502;26.526;2023-02-20T11:15:23;100231.28;;;15.45;55.46
20019;BME280;10170;42.502;26.526;2023-02-20T11:17:52;100241.69;;;15.53;56.15
20019;BME280;10170;42.502;26.526;2023-02-20T11:20:46;100232.00;;;15.70;55.16
20019;BME280;10170;42.502;26.526;2023-02-20T11:26:24;100233.38;;;14.94;56.78
20019;BME280;10170;42.502;26.526;2023-02-20T11:29:12;100224.66;;;15.23;55.51
20019;BME280;10170;42.502;26.526;2023-02-20T11:31:41;100238.25;;;15.64;56.65
20019;BME280;10170;42.502;26.526;2023-02-20T11:34:16;100233.34;;;15.61;55.67
20019;BME280;10170;42.502;26.526;2023-02-20T11:36:52;100225.47;;;15.96;54.01
20019;BME280;10170;42.502;26.526;2023-02-20T11:39:25;100230.25;;;15.39;55.06
20019;BME280;10170;42.502;26.526;2023-02-20T11:44:37;100220.13;;;15.96;54.98
20019;BME280;10170;42.502;26.526;2023-02-20T11:49:36;100242.03;;;15.93;54.03
20019;BME280;10170;42.502;26.526;2023-02-20T11:54:34;100237.50;;;16.23;53.55
20019;BME280;10170;42.502;26.526;2023-02-20T11:57:04;100251.09;;;16.39;52.70
20019;BME280;10170;42.502;26.526;2023-02-20T11:59:39;100247.72;;;16.44;52.12
20019;BME280;10170;42.502;26.526;2023-02-20T12:04:37;100261.22;;;15.35;51.80
20019;BME280;10170;42.502;26.526;2023-02-20T12:07:17;100261.56;;;15.21;51.96
20019;BME280;10170;42.502;26.526;2023-02-20T12:09:48;100257.91;;;15.94;51.00
20019;BME280;10170;42.502;26.526;2023-02-20T12:12:16;100258.69;;;16.72;50.33
20019;BME280;10170;42.502;26.526;2023-02-20T12:14:44;100245.78;;;15.92;51.36
20019;BME280;10170;42.502;26.526;2023-02-20T12:19:53;100235.72;;;16.46;50.35
20019;BME280;10170;42.502;26.526;2023-02-20T12:22:36;100240.34;;;16.39;50.97
20019;BME280;10170;42.502;26.526;2023-02-20T12:27:58;100249.59;;;16.43;49.83
20019;BME280;10170;42.502;26.526;2023-02-20T12:30:46;100245.09;;;15.96;49.67
20019;BME280;10170;42.502;26.526;2023-02-20T12:39:22;100226.13;;;15.43;50.23
20019;BME280;10170;42.502;26.526;2023-02-20T12:42:04;100217.22;;;14.82;51.30
20019;BME280;10170;42.502;26.526;2023-02-20T12:47:39;100202.19;;;14.56;51.50
20019;BME280;10170;42.502;26.526;2023-02-20T12:55:52;100240.25;;;15.32;50.67
20019;BME280;10170;42.502;26.526;2023-02-20T12:58:29;100242.72;;;14.60;51.61
20019;BME280;10170;42.502;26.526;2023-02-20T13:01:06;100252.94;;;14.94;51.36
20019;BME280;10170;42.502;26.526;2023-02-20T13:06:35;100237.97;;;15.29;50.50
20019;BME280;10170;42.502;26.526;2023-02-20T13:09:08;100246.00;;;14.87;51.19
20019;BME280;10170;42.502;26.526;2023-02-20T13:11:41;100249.50;;;15.54;50.15
20019;BME280;10170;42.502;26.526;2023-02-20T13:16:56;100244.44;;;15.64;49.37
20019;BME280;10170;42.502;26.526;2023-02-20T13:21:57;100235.38;;;16.13;49.28
20019;BME280;10170;42.502;26.526;2023-02-20T13:26:55;100235.28;;;16.49;47.56
20019;BME280;10170;42.502;26.526;2023-02-20T13:29:27;100233.63;;;16.19;48.03
20019;BME280;10170;42.502;26.526;2023-02-20T13:32:00;100234.28;;;16.32;48.45
20019;BME280;10170;42.502;26.526;2023-02-20T13:34:38;100218.31;;;16.08;48.27
20019;BME280;10170;42.502;26.526;2023-02-20T13:40:34;100214.03;;;14.67;50.77
20019;BME280;10170;42.502;26.526;2023-02-20T13:45:42;100203.72;;;14.08;51.93
20019;BME280;10170;42.502;26.526;2023-02-20T13:56:24;100229.78;;;13.75;52.69
20019;BME280;10170;42.502;26.526;2023-02-20T13:58:53;100217.34;;;13.56;53.51
20019;BME280;10170;42.502;26.526;2023-02-20T14:01:21;100222.53;;;13.38;53.13
20019;BME280;10170;42.502;26.526;2023-02-20T14:04:02;100234.03;;;13.38;53.96
20019;BME280;10170;42.502;26.526;2023-02-20T14:06:29;100229.28;;;13.47;53.39
20019;BME280;10170;42.502;26.526;2023-02-20T14:09:10;100229.94;;;13.42;53.78
20019;BME280;10170;42.502;26.526;2023-02-20T14:11:40;100229.72;;;13.37;53.84
20019;BME280;10170;42.502;26.526;2023-02-20T14:14:24;100235.50;;;13.28;53.53
20019;BME280;10170;42.502;26.526;2023-02-20T14:17:25;100223.78;;;13.29;53.29
20019;BME280;10170;42.502;26.526;2023-02-20T14:19:59;100222.56;;;13.31;53.23
20019;BME280;10170;42.502;26.526;2023-02-20T14:22:39;100218.66;;;13.27;53.03
20019;BME280;10170;42.502;26.526;2023-02-20T14:27:45;100228.91;;;13.37;52.62
20019;BME280;10170;42.502;26.526;2023-02-20T14:30:17;100230.09;;;13.41;51.56
20019;BME280;10170;42.502;26.526;2023-02-20T14:32:48;100236.00;;;13.69;49.91
20019;BME280;10170;42.502;26.526;2023-02-20T14:38:15;100227.13;;;13.75;49.40
20019;BME280;10170;42.502;26.526;2023-02-20T14:40:43;100230.94;;;13.48;49.48
20019;BME280;10170;42.502;26.526;2023-02-20T14:43:21;100229.91;;;13.36;50.05
20019;BME280;10170;42.502;26.526;2023-02-20T14:46:00;100238.72;;;13.56;49.56
20019;BME280;10170;42.502;26.526;2023-02-20T14:48:30;100234.00;;;13.45;49.80